sensor_id;sensor_type;location;lat;lon;timestamp;P1;durP1;ratioP1;P2;durP2;ratioP2
56860;SDS011;42744;51.094;3.490;2023-03-14T00:01:59;6.73;;;1.37;;
56860;SDS011;42744;51.094;3.490;2023-03-14T00:04:25;6.43;;;1.40;;
56860;SDS011;42744;51.094;3.490;2023-03-14T00:06:51;6.30;;;1.40;;
56860;SDS011;42744;51.094;3.490;2023-03-14T00:09:17;5.80;;;1.33;;
56860;SDS011;42744;51.094;3.490;2023-03-14T00:11:43;5.63;;;1.30;;
56860;SDS011;42744;51.094;3.490;2023-03-14T00:14:09;6.03;;;1.13;;
56860;SDS011;42744;51.094;3.490;2023-03-14T00:16:35;6.27;;;1.13;;
56860;SDS011;42744;51.094;3.490;2023-03-14T00:19:01;4.53;;;1.10;;
56860;SDS011;42744;51.094;3.490;2023-03-14T00:21:27;9.23;;;1.43;;
56860;SDS011;42744;51.094;3.490;2023-03-14T00:23:53;5.67;;;1.83;;
56860;SDS011;42744;51.094;3.490;2023-03-14T00:26:20;8.50;;;1.53;;
56860;SDS011;42744;51.094;3.490;2023-03-14T00:28:47;8.77;;;1.57;;
56860;SDS011;42744;51.094;3.490;2023-03-14T00:31:17;8.23;;;1.50;;
56860;SDS011;42744;51.094;3.490;2023-03-14T00:33:43;7.47;;;1.73;;
56860;SDS011;42744;51.094;3.490;2023-03-14T00:36:11;6.67;;;1.77;;
56860;SDS011;42744;51.094;3.490;2023-03-14T00:38:39;8.17;;;1.40;;
56860;SDS011;42744;51.094;3.490;2023-03-14T00:41:07;10.10;;;2.20;;
56860;SDS011;42744;51.094;3.490;2023-03-14T00:43:38;6.60;;;1.70;;
56860;SDS011;42744;51.094;3.490;2023-03-14T00:46:05;8.50;;;2.30;;
56860;SDS011;42744;51.094;3.490;2023-03-14T00:48:31;9.40;;;2.73;;
56860;SDS011;42744;51.094;3.490;2023-03-14T00:50:59;11.20;;;3.33;;
56860;SDS011;42744;51.094;3.490;2023-03-14T00:53:26;11.13;;;2.60;;
56860;SDS011;42744;51.094;3.490;2023-03-14T00:55:52;7.43;;;2.20;;
56860;SDS011;42744;51.094;3.490;2023-03-14T00:58:18;11.53;;;2.83;;
56860;SDS011;42744;51.094;3.490;2023-03-14T01:00:45;6.80;;;2.23;;
56860;SDS011;42744;51.094;3.490;2023-03-14T01:03:11;8.40;;;1.93;;
56860;SDS011;42744;51.094;3.490;2023-03-14T01:05:39;12.83;;;2.43;;
56860;SDS011;42744;51.094;3.490;2023-03-14T01:08:07;8.87;;;2.13;;
56860;SDS011;42744;51.094;3.490;2023-03-14T01:10:34;11.00;;;2.20;;
56860;SDS011;42744;51.094;3.490;2023-03-14T01:13:04;7.43;;;2.60;;
56860;SDS011;42744;51.094;3.490;2023-03-14T01:15:29;6.77;;;2.00;;
56860;SDS011;42744;51.094;3.490;2023-03-14T01:17:57;11.00;;;3.07;;
56860;SDS011;42744;51.094;3.490;2023-03-14T01:20:23;11.23;;;2.90;;
56860;SDS011;42744;51.094;3.490;2023-03-14T01:22:49;8.90;;;3.03;;
56860;SDS011;42744;51.094;3.490;2023-03-14T01:25:17;11.70;;;2.93;;
56860;SDS011;42744;51.094;3.490;2023-03-14T01:27:43;11.90;;;2.93;;
56860;SDS011;42744;51.094;3.490;2023-03-14T01:30:10;12.87;;;3.03;;
56860;SDS011;42744;51.094;3.490;2023-03-14T01:32:38;9.70;;;2.93;;
56860;SDS011;42744;51.094;3.490;2023-03-14T01:35:04;9.77;;;3.27;;
56860;SDS011;42744;51.094;3.490;2023-03-14T01:37:31;11.60;;;2.90;;
56860;SDS011;42744;51.094;3.490;2023-03-14T01:39:58;9.33;;;2.73;;
56860;SDS011;42744;51.094;3.490;2023-03-14T01:42:24;10.37;;;2.13;;
56860;SDS011;42744;51.094;3.490;2023-03-14T01:44:54;11.70;;;2.83;;
56860;SDS011;42744;51.094;3.490;2023-03-14T01:47:22;10.70;;;2.47;;
56860;SDS011;42744;51.094;3.490;2023-03-14T01:50:06;5.43;;;1.73;;
56860;SDS011;42744;51.094;3.490;2023-03-14T01:52:40;6.87;;;1.77;;
56860;SDS011;42744;51.094;3.490;2023-03-14T01:55:18;10.57;;;2.67;;
56860;SDS011;42744;51.094;3.490;2023-03-14T01:57:59;5.33;;;1.50;;
56860;SDS011;42744;51.094;3.490;2023-03-14T02:00:29;6.03;;;1.77;;
56860;SDS011;42744;51.094;3.490;2023-03-14T02:03:00;8.17;;;1.60;;
56860;SDS011;42744;51.094;3.490;2023-03-14T02:05:32;8.77;;;2.07;;
56860;SDS011;42744;51.094;3.490;2023-03-14T02:08:03;8.70;;;1.70;;
56860;SDS011;42744;51.094;3.490;2023-03-14T02:10:34;5.57;;;1.03;;
56860;SDS011;42744;51.094;3.490;2023-03-14T02:13:04;6.93;;;1.30;;
56860;SDS011;42744;51.094;3.490;2023-03-14T02:15:32;5.93;;;1.20;;
56860;SDS011;42744;51.094;3.490;2023-03-14T02:17:58;7.33;;;1.20;;
56860;SDS011;42744;51.094;3.490;2023-03-14T02:23:00;6.23;;;1.07;;
56860;SDS011;42744;51.094;3.490;2023-03-14T02:27:53;4.83;;;0.83;;
56860;SDS011;42744;51.094;3.490;2023-03-14T02:30:23;4.37;;;0.83;;
56860;SDS011;42744;51.094;3.490;2023-03-14T02:32:52;4.20;;;0.83;;
56860;SDS011;42744;51.094;3.490;2023-03-14T02:35:26;5.73;;;1.77;;
56860;SDS011;42744;51.094;3.490;2023-03-14T02:38:04;6.10;;;1.00;;
56860;SDS011;42744;51.094;3.490;2023-03-14T02:40:46;3.90;;;0.90;;
56860;SDS011;42744;51.094;3.490;2023-03-14T02:43:13;5.53;;;1.27;;
56860;SDS011;42744;51.094;3.490;2023-03-14T02:45:41;3.97;;;1.30;;
56860;SDS011;42744;51.094;3.490;2023-03-14T02:48:14;3.43;;;1.10;;
56860;SDS011;42744;51.094;3.490;2023-03-14T02:50:43;6.60;;;1.30;;
56860;SDS011;42744;51.094;3.490;2023-03-14T02:53:13;19.73;;;2.20;;
56860;SDS011;42744;51.094;3.490;2023-03-14T02:55:46;4.63;;;1.23;;
56860;SDS011;42744;51.094;3.490;2023-03-14T02:58:14;4.27;;;0.83;;
56860;SDS011;42744;51.094;3.490;2023-03-14T03:00:41;3.03;;;0.90;;
56860;SDS011;42744;51.094;3.490;2023-03-14T03:03:07;2.97;;;0.77;;
56860;SDS011;42744;51.094;3.490;2023-03-14T03:05:33;5.00;;;0.87;;
56860;SDS011;42744;51.094;3.490;2023-03-14T03:08:01;3.80;;;1.13;;
56860;SDS011;42744;51.094;3.490;2023-03-14T03:10:27;4.03;;;0.90;;
56860;SDS011;42744;51.094;3.490;2023-03-14T03:12:55;1.77;;;0.90;;
56860;SDS011;42744;51.094;3.490;2023-03-14T03:15:22;3.17;;;1.00;;
56860;SDS011;42744;51.094;3.490;2023-03-14T03:17:49;1.87;;;0.70;;
56860;SDS011;42744;51.094;3.490;2023-03-14T03:20:15;2.50;;;0.90;;
56860;SDS011;42744;51.094;3.490;2023-03-14T03:22:41;5.20;;;0.93;;
56860;SDS011;42744;51.094;3.490;2023-03-14T03:25:08;4.03;;;1.10;;
56860;SDS011;42744;51.094;3.490;2023-03-14T03:27:35;4.33;;;1.00;;
56860;SDS011;42744;51.094;3.490;2023-03-14T03:30:03;3.23;;;0.90;;
56860;SDS011;42744;51.094;3.490;2023-03-14T03:32:31;3.80;;;1.13;;
56860;SDS011;42744;51.094;3.490;2023-03-14T03:34:58;4.73;;;1.47;;
56860;SDS011;42744;51.094;3.490;2023-03-14T03:37:24;5.73;;;1.63;;
56860;SDS011;42744;51.094;3.490;2023-03-14T03:39:50;4.90;;;1.87;;
56860;SDS011;42744;51.094;3.490;2023-03-14T03:42:17;6.03;;;1.57;;
56860;SDS011;42744;51.094;3.490;2023-03-14T03:44:43;3.50;;;1.90;;
56860;SDS011;42744;51.094;3.490;2023-03-14T03:47:10;5.47;;;1.93;;
56860;SDS011;42744;51.094;3.490;2023-03-14T03:49:36;7.43;;;2.23;;
56860;SDS011;42744;51.094;3.490;2023-03-14T03:52:02;5.23;;;1.90;;
56860;SDS011;42744;51.094;3.490;2023-03-14T03:54:28;3.97;;;1.50;;
56860;SDS011;42744;51.094;3.490;2023-03-14T03:56:54;8.73;;;2.23;;
56860;SDS011;42744;51.094;3.490;2023-03-14T03:59:20;6.83;;;2.23;;
56860;SDS011;42744;51.094;3.490;2023-03-14T04:01:47;5.40;;;2.33;;
56860;SDS011;42744;51.094;3.490;2023-03-14T04:04:13;3.43;;;2.03;;
56860;SDS011;42744;51.094;3.490;2023-03-14T04:06:39;4.77;;;1.87;;
56860;SDS011;42744;51.094;3.490;2023-03-14T04:09:07;2.93;;;1.90;;
56860;SDS011;42744;51.094;3.490;2023-03-14T04:11:36;6.10;;;1.97;;
56860;SDS011;42744;51.094;3.490;2023-03-14T04:14:03;9.17;;;1.90;;
56860;SDS011;42744;51.094;3.490;2023-03-14T04:16:30;6.20;;;2.00;;
56860;SDS011;42744;51.094;3.490;2023-03-14T04:19:00;6.17;;;1.90;;
56860;SDS011;42744;51.094;3.490;2023-03-14T04:21:26;7.13;;;1.60;;
56860;SDS011;42744;51.094;3.490;2023-03-14T04:23:53;3.43;;;2.13;;
56860;SDS011;42744;51.094;3.490;2023-03-14T04:26:19;4.10;;;1.90;;
56860;SDS011;42744;51.094;3.490;2023-03-14T04:28:46;7.07;;;2.40;;
56860;SDS011;42744;51.094;3.490;2023-03-14T04:31:13;4.70;;;2.37;;
56860;SDS011;42744;51.094;3.490;2023-03-14T04:33:45;6.50;;;2.60;;
56860;SDS011;42744;51.094;3.490;2023-03-14T04:36:12;4.63;;;2.70;;
56860;SDS011;42744;51.094;3.490;2023-03-14T04:38:39;6.03;;;2.37;;
56860;SDS011;42744;51.094;3.490;2023-03-14T04:41:07;5.07;;;2.10;;
56860;SDS011;42744;51.094;3.490;2023-03-14T04:43:33;3.80;;;1.93;;
56860;SDS011;42744;51.094;3.490;2023-03-14T04:46:00;4.70;;;1.77;;
56860;SDS011;42744;51.094;3.490;2023-03-14T04:48:27;2.33;;;1.63;;
56860;SDS011;42744;51.094;3.490;2023-03-14T04:50:53;2.80;;;1.40;;
56860;SDS011;42744;51.094;3.490;2023-03-14T04:53:19;4.83;;;1.37;;
56860;SDS011;42744;51.094;3.490;2023-03-14T04:55:50;2.80;;;1.30;;
56860;SDS011;42744;51.094;3.490;2023-03-14T04:58:18;1.90;;;0.87;;
56860;SDS011;42744;51.094;3.490;2023-03-14T05:00:46;3.67;;;1.30;;
56860;SDS011;42744;51.094;3.490;2023-03-14T05:03:14;4.53;;;1.33;;
56860;SDS011;42744;51.094;3.490;2023-03-14T05:05:42;6.57;;;1.50;;
56860;SDS011;42744;51.094;3.490;2023-03-14T05:08:09;2.63;;;1.07;;
56860;SDS011;42744;51.094;3.490;2023-03-14T05:10:35;4.83;;;1.30;;
56860;SDS011;42744;51.094;3.490;2023-03-14T05:13:02;4.07;;;1.13;;
56860;SDS011;42744;51.094;3.490;2023-03-14T05:15:29;5.33;;;1.50;;
56860;SDS011;42744;51.094;3.490;2023-03-14T05:17:55;2.60;;;1.13;;
56860;SDS011;42744;51.094;3.490;2023-03-14T05:20:21;4.83;;;1.37;;
56860;SDS011;42744;51.094;3.490;2023-03-14T05:22:48;3.30;;;1.77;;
56860;SDS011;42744;51.094;3.490;2023-03-14T05:25:14;6.97;;;1.90;;
56860;SDS011;42744;51.094;3.490;2023-03-14T05:27:41;5.20;;;1.80;;
56860;SDS011;42744;51.094;3.490;2023-03-14T05:30:07;5.60;;;2.10;;
56860;SDS011;42744;51.094;3.490;2023-03-14T05:32:35;6.87;;;2.27;;
56860;SDS011;42744;51.094;3.490;2023-03-14T05:35:01;6.53;;;1.90;;
56860;SDS011;42744;51.094;3.490;2023-03-14T05:37:30;5.97;;;2.17;;
56860;SDS011;42744;51.094;3.490;2023-03-14T05:39:56;5.30;;;1.83;;
56860;SDS011;42744;51.094;3.490;2023-03-14T05:42:22;6.03;;;1.70;;
56860;SDS011;42744;51.094;3.490;2023-03-14T05:44:48;4.90;;;1.43;;
56860;SDS011;42744;51.094;3.490;2023-03-14T05:47:15;4.37;;;1.43;;
56860;SDS011;42744;51.094;3.490;2023-03-14T05:49:41;7.80;;;1.57;;
56860;SDS011;42744;51.094;3.490;2023-03-14T05:52:07;6.90;;;1.37;;
56860;SDS011;42744;51.094;3.490;2023-03-14T05:54:33;7.43;;;2.13;;
56860;SDS011;42744;51.094;3.490;2023-03-14T05:56:59;4.37;;;1.60;;
56860;SDS011;42744;51.094;3.490;2023-03-14T05:59:26;5.40;;;1.43;;
56860;SDS011;42744;51.094;3.490;2023-03-14T06:01:53;7.00;;;1.70;;
56860;SDS011;42744;51.094;3.490;2023-03-14T06:04:20;3.80;;;1.40;;
56860;SDS011;42744;51.094;3.490;2023-03-14T06:06:47;8.00;;;1.70;;
56860;SDS011;42744;51.094;3.490;2023-03-14T06:09:14;4.27;;;1.23;;
56860;SDS011;42744;51.094;3.490;2023-03-14T06:11:41;3.83;;;1.23;;
56860;SDS011;42744;51.094;3.490;2023-03-14T06:14:06;6.43;;;1.20;;
56860;SDS011;42744;51.094;3.490;2023-03-14T06:16:33;8.70;;;1.60;;
56860;SDS011;42744;51.094;3.490;2023-03-14T06:18:59;6.33;;;1.63;;
56860;SDS011;42744;51.094;3.490;2023-03-14T06:21:27;8.17;;;1.53;;
56860;SDS011;42744;51.094;3.490;2023-03-14T06:23:53;7.10;;;1.93;;
56860;SDS011;42744;51.094;3.490;2023-03-14T06:26:21;7.30;;;2.00;;
56860;SDS011;42744;51.094;3.490;2023-03-14T06:28:48;5.90;;;2.40;;
56860;SDS011;42744;51.094;3.490;2023-03-14T06:31:16;7.63;;;2.37;;
56860;SDS011;42744;51.094;3.490;2023-03-14T06:33:44;6.60;;;2.30;;
56860;SDS011;42744;51.094;3.490;2023-03-14T06:36:11;8.80;;;2.50;;
56860;SDS011;42744;51.094;3.490;2023-03-14T06:38:39;4.90;;;2.50;;
56860;SDS011;42744;51.094;3.490;2023-03-14T06:41:06;6.93;;;3.27;;
56860;SDS011;42744;51.094;3.490;2023-03-14T06:43:33;8.73;;;2.97;;
56860;SDS011;42744;51.094;3.490;2023-03-14T06:45:59;6.70;;;3.13;;
56860;SDS011;42744;51.094;3.490;2023-03-14T06:48:25;7.43;;;2.80;;
56860;SDS011;42744;51.094;3.490;2023-03-14T06:50:52;6.27;;;3.03;;
56860;SDS011;42744;51.094;3.490;2023-03-14T06:53:19;7.57;;;2.50;;
56860;SDS011;42744;51.094;3.490;2023-03-14T06:55:45;8.20;;;3.07;;
56860;SDS011;42744;51.094;3.490;2023-03-14T06:58:12;6.20;;;3.33;;
56860;SDS011;42744;51.094;3.490;2023-03-14T07:00:39;7.70;;;3.03;;
56860;SDS011;42744;51.094;3.490;2023-03-14T07:03:05;5.63;;;3.07;;
56860;SDS011;42744;51.094;3.490;2023-03-14T07:05:31;7.97;;;3.03;;
56860;SDS011;42744;51.094;3.490;2023-03-14T07:07:57;8.17;;;3.23;;
56860;SDS011;42744;51.094;3.490;2023-03-14T07:10:23;7.07;;;3.40;;
56860;SDS011;42744;51.094;3.490;2023-03-14T07:12:50;7.93;;;2.37;;
56860;SDS011;42744;51.094;3.490;2023-03-14T07:15:18;6.20;;;2.20;;
56860;SDS011;42744;51.094;3.490;2023-03-14T07:17:48;6.53;;;2.03;;
56860;SDS011;42744;51.094;3.490;2023-03-14T07:20:16;5.50;;;2.10;;
56860;SDS011;42744;51.094;3.490;2023-03-14T07:22:42;5.53;;;1.93;;
56860;SDS011;42744;51.094;3.490;2023-03-14T07:25:09;7.57;;;1.90;;
56860;SDS011;42744;51.094;3.490;2023-03-14T07:27:37;6.37;;;1.90;;
56860;SDS011;42744;51.094;3.490;2023-03-14T07:30:04;5.90;;;2.10;;
56860;SDS011;42744;51.094;3.490;2023-03-14T07:32:31;6.40;;;2.27;;
56860;SDS011;42744;51.094;3.490;2023-03-14T07:34:57;7.47;;;2.20;;
56860;SDS011;42744;51.094;3.490;2023-03-14T07:37:23;7.20;;;2.40;;
56860;SDS011;42744;51.094;3.490;2023-03-14T07:39:49;5.63;;;2.10;;
56860;SDS011;42744;51.094;3.490;2023-03-14T07:42:15;6.73;;;2.57;;
56860;SDS011;42744;51.094;3.490;2023-03-14T07:44:42;6.37;;;2.00;;
56860;SDS011;42744;51.094;3.490;2023-03-14T07:47:08;5.97;;;2.17;;
56860;SDS011;42744;51.094;3.490;2023-03-14T07:49:34;6.60;;;2.50;;
56860;SDS011;42744;51.094;3.490;2023-03-14T07:52:00;5.80;;;2.50;;
56860;SDS011;42744;51.094;3.490;2023-03-14T07:54:26;7.30;;;2.73;;
56860;SDS011;42744;51.094;3.490;2023-03-14T07:56:52;6.33;;;2.50;;
56860;SDS011;42744;51.094;3.490;2023-03-14T07:59:18;6.73;;;3.10;;
56860;SDS011;42744;51.094;3.490;2023-03-14T08:01:45;5.63;;;2.77;;
56860;SDS011;42744;51.094;3.490;2023-03-14T08:04:11;8.13;;;3.07;;
56860;SDS011;42744;51.094;3.490;2023-03-14T08:06:37;6.20;;;3.07;;
56860;SDS011;42744;51.094;3.490;2023-03-14T08:09:03;7.50;;;2.70;;
56860;SDS011;42744;51.094;3.490;2023-03-14T08:11:30;6.07;;;2.90;;
56860;SDS011;42744;51.094;3.490;2023-03-14T08:13:55;9.43;;;3.23;;
56860;SDS011;42744;51.094;3.490;2023-03-14T08:16:21;6.07;;;3.17;;
56860;SDS011;42744;51.094;3.490;2023-03-14T08:18:48;7.77;;;3.80;;
56860;SDS011;42744;51.094;3.490;2023-03-14T08:21:14;7.30;;;3.03;;
56860;SDS011;42744;51.094;3.490;2023-03-14T08:23:40;6.87;;;3.20;;
56860;SDS011;42744;51.094;3.490;2023-03-14T08:26:06;4.57;;;2.37;;
56860;SDS011;42744;51.094;3.490;2023-03-14T08:28:32;5.70;;;2.57;;
56860;SDS011;42744;51.094;3.490;2023-03-14T08:30:58;7.73;;;2.97;;
56860;SDS011;42744;51.094;3.490;2023-03-14T08:33:26;7.80;;;2.63;;
56860;SDS011;42744;51.094;3.490;2023-03-14T08:35:53;10.20;;;3.30;;
56860;SDS011;42744;51.094;3.490;2023-03-14T08:38:21;9.67;;;2.77;;
56860;SDS011;42744;51.094;3.490;2023-03-14T08:40:47;11.33;;;2.80;;
56860;SDS011;42744;51.094;3.490;2023-03-14T08:43:15;10.83;;;2.77;;
56860;SDS011;42744;51.094;3.490;2023-03-14T08:45:41;12.23;;;2.50;;
56860;SDS011;42744;51.094;3.490;2023-03-14T08:48:07;12.17;;;2.37;;
56860;SDS011;42744;51.094;3.490;2023-03-14T08:50:33;8.80;;;2.30;;
56860;SDS011;42744;51.094;3.490;2023-03-14T08:52:59;13.47;;;2.83;;
56860;SDS011;42744;51.094;3.490;2023-03-14T08:55:26;8.53;;;2.67;;
56860;SDS011;42744;51.094;3.490;2023-03-14T08:57:55;11.80;;;2.70;;
56860;SDS011;42744;51.094;3.490;2023-03-14T09:00:21;7.87;;;2.00;;
56860;SDS011;42744;51.094;3.490;2023-03-14T09:02:47;10.60;;;2.70;;
56860;SDS011;42744;51.094;3.490;2023-03-14T09:05:13;8.93;;;2.20;;
56860;SDS011;42744;51.094;3.490;2023-03-14T09:07:39;11.47;;;3.03;;
56860;SDS011;42744;51.094;3.490;2023-03-14T09:10:06;10.97;;;2.17;;
56860;SDS011;42744;51.094;3.490;2023-03-14T09:12:33;10.40;;;2.20;;
56860;SDS011;42744;51.094;3.490;2023-03-14T09:14:59;9.70;;;2.20;;
56860;SDS011;42744;51.094;3.490;2023-03-14T09:17:25;12.07;;;2.67;;
56860;SDS011;42744;51.094;3.490;2023-03-14T09:19:52;9.93;;;2.10;;
56860;SDS011;42744;51.094;3.490;2023-03-14T09:22:18;7.40;;;1.70;;
56860;SDS011;42744;51.094;3.490;2023-03-14T09:24:44;6.97;;;2.23;;
56860;SDS011;42744;51.094;3.490;2023-03-14T09:27:10;7.63;;;1.77;;
56860;SDS011;42744;51.094;3.490;2023-03-14T09:29:36;7.90;;;1.97;;
56860;SDS011;42744;51.094;3.490;2023-03-14T09:32:02;12.90;;;1.67;;
56860;SDS011;42744;51.094;3.490;2023-03-14T09:34:29;13.33;;;1.90;;
56860;SDS011;42744;51.094;3.490;2023-03-14T09:36:55;6.23;;;1.20;;
56860;SDS011;42744;51.094;3.490;2023-03-14T09:39:23;9.70;;;1.30;;
56860;SDS011;42744;51.094;3.490;2023-03-14T09:41:50;8.90;;;1.67;;
56860;SDS011;42744;51.094;3.490;2023-03-14T09:47:02;9.07;;;1.90;;
56860;SDS011;42744;51.094;3.490;2023-03-14T09:49:39;5.23;;;1.13;;
56860;SDS011;42744;51.094;3.490;2023-03-14T09:54:46;6.33;;;1.10;;
56860;SDS011;42744;51.094;3.490;2023-03-14T09:57:17;5.33;;;1.10;;
56860;SDS011;42744;51.094;3.490;2023-03-14T09:59:46;4.90;;;1.13;;
56860;SDS011;42744;51.094;3.490;2023-03-14T10:02:15;2.83;;;0.70;;
56860;SDS011;42744;51.094;3.490;2023-03-14T10:04:47;5.60;;;1.33;;
56860;SDS011;42744;51.094;3.490;2023-03-14T10:07:15;5.47;;;0.87;;
56860;SDS011;42744;51.094;3.490;2023-03-14T10:10:01;6.93;;;1.00;;
56860;SDS011;42744;51.094;3.490;2023-03-14T10:12:35;4.60;;;1.10;;
56860;SDS011;42744;51.094;3.490;2023-03-14T10:15:14;6.70;;;1.20;;
56860;SDS011;42744;51.094;3.490;2023-03-14T10:17:48;3.80;;;1.90;;
56860;SDS011;42744;51.094;3.490;2023-03-14T10:20:37;5.87;;;1.30;;
56860;SDS011;42744;51.094;3.490;2023-03-14T10:23:18;6.10;;;0.90;;
56860;SDS011;42744;51.094;3.490;2023-03-14T10:26:00;6.70;;;1.50;;
56860;SDS011;42744;51.094;3.490;2023-03-14T10:28:29;4.60;;;0.90;;
56860;SDS011;42744;51.094;3.490;2023-03-14T10:31:24;4.77;;;0.97;;
56860;SDS011;42744;51.094;3.490;2023-03-14T10:33:58;5.77;;;0.97;;
56860;SDS011;42744;51.094;3.490;2023-03-14T10:36:28;5.67;;;0.90;;
56860;SDS011;42744;51.094;3.490;2023-03-14T10:39:22;3.70;;;1.10;;
56860;SDS011;42744;51.094;3.490;2023-03-14T10:41:52;3.47;;;0.90;;
56860;SDS011;42744;51.094;3.490;2023-03-14T10:44:21;4.80;;;1.20;;
56860;SDS011;42744;51.094;3.490;2023-03-14T10:46:56;6.60;;;1.80;;
56860;SDS011;42744;51.094;3.490;2023-03-14T10:49:30;3.87;;;1.17;;
56860;SDS011;42744;51.094;3.490;2023-03-14T10:52:13;5.63;;;1.30;;
56860;SDS011;42744;51.094;3.490;2023-03-14T10:55:00;5.60;;;1.03;;
56860;SDS011;42744;51.094;3.490;2023-03-14T10:57:29;5.67;;;1.17;;
56860;SDS011;42744;51.094;3.490;2023-03-14T10:59:55;4.80;;;0.90;;
56860;SDS011;42744;51.094;3.490;2023-03-14T11:02:33;5.57;;;0.70;;
56860;SDS011;42744;51.094;3.490;2023-03-14T11:07:40;6.00;;;1.23;;
56860;SDS011;42744;51.094;3.490;2023-03-14T11:10:10;9.53;;;1.60;;
56860;SDS011;42744;51.094;3.490;2023-03-14T11:13:04;11.73;;;1.50;;
56860;SDS011;42744;51.094;3.490;2023-03-14T11:15:41;10.83;;;1.73;;
56860;SDS011;42744;51.094;3.490;2023-03-14T11:31:41;15.23;;;2.43;;
56860;SDS011;42744;51.094;3.490;2023-03-14T11:34:28;16.23;;;2.13;;
56860;SDS011;42744;51.094;3.490;2023-03-14T11:37:05;12.30;;;2.20;;
56860;SDS011;42744;51.094;3.490;2023-03-14T11:39:40;12.90;;;2.17;;
56860;SDS011;42744;51.094;3.490;2023-03-14T11:42:14;14.20;;;2.27;;
56860;SDS011;42744;51.094;3.490;2023-03-14T11:44:44;10.03;;;1.93;;
56860;SDS011;42744;51.094;3.490;2023-03-14T11:47:33;7.53;;;1.30;;
56860;SDS011;42744;51.094;3.490;2023-03-14T11:50:15;12.60;;;2.23;;
56860;SDS011;42744;51.094;3.490;2023-03-14T11:52:50;8.63;;;1.70;;
56860;SDS011;42744;51.094;3.490;2023-03-14T11:55:25;11.73;;;1.43;;
56860;SDS011;42744;51.094;3.490;2023-03-14T11:57:58;17.33;;;2.57;;
56860;SDS011;42744;51.094;3.490;2023-03-14T12:00:28;10.07;;;1.57;;
56860;SDS011;42744;51.094;3.490;2023-03-14T12:03:01;12.93;;;2.63;;
56860;SDS011;42744;51.094;3.490;2023-03-14T12:05:37;9.77;;;1.80;;
56860;SDS011;42744;51.094;3.490;2023-03-14T12:10:58;10.93;;;1.87;;
56860;SDS011;42744;51.094;3.490;2023-03-14T12:13:35;16.57;;;2.60;;
56860;SDS011;42744;51.094;3.490;2023-03-14T12:16:04;16.03;;;2.47;;
56860;SDS011;42744;51.094;3.490;2023-03-14T12:18:52;12.70;;;2.47;;
56860;SDS011;42744;51.094;3.490;2023-03-14T12:21:19;11.97;;;2.40;;
56860;SDS011;42744;51.094;3.490;2023-03-14T12:23:52;15.37;;;2.50;;
56860;SDS011;42744;51.094;3.490;2023-03-14T12:26:22;17.13;;;2.50;;
56860;SDS011;42744;51.094;3.490;2023-03-14T12:28:50;19.27;;;2.40;;
56860;SDS011;42744;51.094;3.490;2023-03-14T12:31:36;17.10;;;2.63;;
56860;SDS011;42744;51.094;3.490;2023-03-14T12:42:35;18.63;;;2.30;;
56860;SDS011;42744;51.094;3.490;2023-03-14T12:45:27;12.43;;;2.07;;
56860;SDS011;42744;51.094;3.490;2023-03-14T12:50:46;8.20;;;2.23;;
56860;SDS011;42744;51.094;3.490;2023-03-14T12:59:19;9.77;;;1.40;;
56860;SDS011;42744;51.094;3.490;2023-03-14T13:04:35;14.43;;;2.37;;
56860;SDS011;42744;51.094;3.490;2023-03-14T13:07:13;11.67;;;1.50;;
56860;SDS011;42744;51.094;3.490;2023-03-14T13:12:39;9.87;;;1.80;;
56860;SDS011;42744;51.094;3.490;2023-03-14T13:17:54;9.50;;;1.33;;
56860;SDS011;42744;51.094;3.490;2023-03-14T13:20:32;13.30;;;2.23;;
56860;SDS011;42744;51.094;3.490;2023-03-14T13:23:02;11.27;;;1.70;;
56860;SDS011;42744;51.094;3.490;2023-03-14T13:25:32;12.57;;;2.10;;
56860;SDS011;42744;51.094;3.490;2023-03-14T13:28:00;10.67;;;1.70;;
56860;SDS011;42744;51.094;3.490;2023-03-14T13:30:29;16.73;;;2.10;;
56860;SDS011;42744;51.094;3.490;2023-03-14T13:33:04;10.13;;;2.20;;
56860;SDS011;42744;51.094;3.490;2023-03-14T13:35:38;6.63;;;1.30;;
56860;SDS011;42744;51.094;3.490;2023-03-14T13:38:15;12.67;;;1.80;;
56860;SDS011;42744;51.094;3.490;2023-03-14T13:40:43;6.57;;;1.10;;
56860;SDS011;42744;51.094;3.490;2023-03-14T13:43:29;11.70;;;1.47;;
56860;SDS011;42744;51.094;3.490;2023-03-14T13:46:10;11.80;;;1.57;;
56860;SDS011;42744;51.094;3.490;2023-03-14T13:48:47;8.03;;;1.43;;
56860;SDS011;42744;51.094;3.490;2023-03-14T13:51:19;7.53;;;1.17;;
56860;SDS011;42744;51.094;3.490;2023-03-14T13:53:47;7.10;;;1.10;;
56860;SDS011;42744;51.094;3.490;2023-03-14T13:56:15;6.80;;;1.30;;
56860;SDS011;42744;51.094;3.490;2023-03-14T13:58:43;5.20;;;0.80;;
56860;SDS011;42744;51.094;3.490;2023-03-14T14:03:41;5.10;;;1.10;;
56860;SDS011;42744;51.094;3.490;2023-03-14T14:06:16;7.70;;;0.73;;
56860;SDS011;42744;51.094;3.490;2023-03-14T14:08:59;5.00;;;0.80;;
56860;SDS011;42744;51.094;3.490;2023-03-14T14:11:47;3.87;;;0.43;;
56860;SDS011;42744;51.094;3.490;2023-03-14T14:14:29;6.47;;;0.87;;
56860;SDS011;42744;51.094;3.490;2023-03-14T14:17:21;2.13;;;0.60;;
56860;SDS011;42744;51.094;3.490;2023-03-14T14:19:56;2.53;;;0.40;;
56860;SDS011;42744;51.094;3.490;2023-03-14T14:22:24;3.87;;;0.50;;
56860;SDS011;42744;51.094;3.490;2023-03-14T14:24:51;1.67;;;0.50;;
56860;SDS011;42744;51.094;3.490;2023-03-14T14:27:19;2.63;;;0.40;;
56860;SDS011;42744;51.094;3.490;2023-03-14T14:29:58;2.97;;;0.60;;
56860;SDS011;42744;51.094;3.490;2023-03-14T14:32:27;3.13;;;0.50;;
56860;SDS011;42744;51.094;3.490;2023-03-14T14:35:03;4.57;;;0.73;;
56860;SDS011;42744;51.094;3.490;2023-03-14T14:37:31;2.80;;;0.50;;
56860;SDS011;42744;51.094;3.490;2023-03-14T14:40:10;4.63;;;1.13;;
56860;SDS011;42744;51.094;3.490;2023-03-14T14:42:51;2.77;;;0.50;;
56860;SDS011;42744;51.094;3.490;2023-03-14T14:45:21;4.07;;;1.10;;
56860;SDS011;42744;51.094;3.490;2023-03-14T14:47:50;2.63;;;0.63;;
56860;SDS011;42744;51.094;3.490;2023-03-14T14:50:37;1.97;;;0.40;;
56860;SDS011;42744;51.094;3.490;2023-03-14T14:53:31;2.40;;;0.47;;
56860;SDS011;42744;51.094;3.490;2023-03-14T14:56:04;3.60;;;0.50;;
56860;SDS011;42744;51.094;3.490;2023-03-14T14:58:41;4.60;;;0.60;;
56860;SDS011;42744;51.094;3.490;2023-03-14T15:01:17;2.23;;;0.50;;
56860;SDS011;42744;51.094;3.490;2023-03-14T15:03:46;6.57;;;1.27;;
56860;SDS011;42744;51.094;3.490;2023-03-14T15:06:15;5.83;;;1.10;;
56860;SDS011;42744;51.094;3.490;2023-03-14T15:08:43;7.30;;;0.87;;
56860;SDS011;42744;51.094;3.490;2023-03-14T15:11:20;8.10;;;0.93;;
56860;SDS011;42744;51.094;3.490;2023-03-14T15:13:49;6.20;;;0.90;;
56860;SDS011;42744;51.094;3.490;2023-03-14T15:16:15;6.27;;;1.07;;
56860;SDS011;42744;51.094;3.490;2023-03-14T15:18:43;5.50;;;1.20;;
56860;SDS011;42744;51.094;3.490;2023-03-14T15:21:18;4.07;;;0.60;;
56860;SDS011;42744;51.094;3.490;2023-03-14T15:23:44;4.43;;;0.70;;
56860;SDS011;42744;51.094;3.490;2023-03-14T15:26:14;5.40;;;1.23;;
56860;SDS011;42744;51.094;3.490;2023-03-14T15:28:45;12.33;;;2.13;;
56860;SDS011;42744;51.094;3.490;2023-03-14T15:31:12;5.27;;;0.80;;
56860;SDS011;42744;51.094;3.490;2023-03-14T15:33:40;6.30;;;1.70;;
56860;SDS011;42744;51.094;3.490;2023-03-14T15:36:10;4.37;;;0.90;;
56860;SDS011;42744;51.094;3.490;2023-03-14T15:38:48;13.73;;;1.20;;
56860;SDS011;42744;51.094;3.490;2023-03-14T15:41:14;7.23;;;1.30;;
56860;SDS011;42744;51.094;3.490;2023-03-14T15:43:41;11.70;;;2.23;;
56860;SDS011;42744;51.094;3.490;2023-03-14T15:46:08;12.03;;;3.63;;
56860;SDS011;42744;51.094;3.490;2023-03-14T15:48:35;8.23;;;1.60;;
56860;SDS011;42744;51.094;3.490;2023-03-14T15:51:01;12.93;;;1.87;;
56860;SDS011;42744;51.094;3.490;2023-03-14T15:53:27;3.90;;;1.03;;
56860;SDS011;42744;51.094;3.490;2023-03-14T15:55:54;8.03;;;1.50;;
56860;SDS011;42744;51.094;3.490;2023-03-14T15:58:20;12.27;;;2.00;;